Current | Forecast
Updated: 12:30 AM CEST on August 21, 2017
Observed at Burgos, Spain
Temperature 16°C
Humidity 55%
Dew Point 7°C
Wind NNE at 9 km/h
Pressure 1024 hPa (Falling)
Conditions Clear
Visibility 10.0 kilometers
UV N/A
Clouds
Yesterday's Maximum 27°C
Yesterday's Minimum 9°C approx.
Yesterday's Heating Degree Days 1 approx.
Sunrise7:30 AM CEST
Sunset9:06 PM CEST
Moon Rise6:57 AM CEST
Moon Set9:04 PM CEST
Moon PhaseMoon Phase
Waning Crescent
Raw METARMETAR LEBG 202230Z AUTO 03005KT 360V060 9999 NCD 16/07 Q1024


Monday
. High: 69° F.
Tuesday
. High: 73° F.
Wednesday
. High: 62° F.
Thursday
. High: 66° F.
Friday
. High: 77° F.
Saturday
. High: 75° F.
Sunday
. High: 75° F.
Monday
. High: 84° F.

Units: English | Metric

Find the Weather for any City, State or Zipcode, or Country:

U.S. State List | Severe Weather | Tropical Storms | Ski Conditions
United States | Canada | Central America | South America | Asia | Europe | Australia | Africa | Islands

Weather Underground

© Copyright 2017
The Weather Company, LLC